sensor_id;sensor_type;location;lat;lon;timestamp;P1;durP1;ratioP1;P2;durP2;ratioP2
18726;SDS011;9492;51.888;5.186;2023-04-29T00:02:01;23.30;;;16.43;;
18726;SDS011;9492;51.888;5.186;2023-04-29T00:04:28;23.33;;;15.03;;
18726;SDS011;9492;51.888;5.186;2023-04-29T00:06:54;23.03;;;15.30;;
18726;SDS011;9492;51.888;5.186;2023-04-29T00:09:20;20.67;;;15.07;;
18726;SDS011;9492;51.888;5.186;2023-04-29T00:11:46;23.03;;;16.30;;
18726;SDS011;9492;51.888;5.186;2023-04-29T00:14:14;23.80;;;15.53;;
18726;SDS011;9492;51.888;5.186;2023-04-29T00:16:40;20.50;;;14.80;;
18726;SDS011;9492;51.888;5.186;2023-04-29T00:19:06;23.13;;;15.40;;
18726;SDS011;9492;51.888;5.186;2023-04-29T00:21:32;24.30;;;15.63;;
18726;SDS011;9492;51.888;5.186;2023-04-29T00:23:58;22.77;;;16.27;;
18726;SDS011;9492;51.888;5.186;2023-04-29T00:26:24;24.77;;;15.43;;
18726;SDS011;9492;51.888;5.186;2023-04-29T00:28:50;21.77;;;16.00;;
18726;SDS011;9492;51.888;5.186;2023-04-29T00:31:16;22.17;;;15.97;;
18726;SDS011;9492;51.888;5.186;2023-04-29T00:33:42;22.43;;;15.77;;
18726;SDS011;9492;51.888;5.186;2023-04-29T00:36:09;26.27;;;18.57;;
18726;SDS011;9492;51.888;5.186;2023-04-29T00:38:35;28.73;;;17.37;;
18726;SDS011;9492;51.888;5.186;2023-04-29T00:41:02;30.90;;;19.00;;
18726;SDS011;9492;51.888;5.186;2023-04-29T00:43:28;31.00;;;20.03;;
18726;SDS011;9492;51.888;5.186;2023-04-29T00:45:54;29.90;;;19.83;;
18726;SDS011;9492;51.888;5.186;2023-04-29T00:48:20;31.97;;;20.50;;
18726;SDS011;9492;51.888;5.186;2023-04-29T00:50:46;34.77;;;21.23;;
18726;SDS011;9492;51.888;5.186;2023-04-29T00:53:12;32.60;;;19.90;;
18726;SDS011;9492;51.888;5.186;2023-04-29T00:55:39;30.87;;;21.07;;
18726;SDS011;9492;51.888;5.186;2023-04-29T00:58:06;29.80;;;20.03;;
18726;SDS011;9492;51.888;5.186;2023-04-29T01:00:34;33.17;;;21.73;;
18726;SDS011;9492;51.888;5.186;2023-04-29T01:03:01;30.77;;;20.40;;
18726;SDS011;9492;51.888;5.186;2023-04-29T01:05:28;35.33;;;22.00;;
18726;SDS011;9492;51.888;5.186;2023-04-29T01:11:22;35.37;;;22.23;;
18726;SDS011;9492;51.888;5.186;2023-04-29T01:16:10;42.63;;;22.53;;
18726;SDS011;9492;51.888;5.186;2023-04-29T01:18:38;35.17;;;22.33;;
18726;SDS011;9492;51.888;5.186;2023-04-29T01:21:05;40.33;;;22.87;;
18726;SDS011;9492;51.888;5.186;2023-04-29T01:23:32;36.73;;;21.67;;
18726;SDS011;9492;51.888;5.186;2023-04-29T01:25:57;40.23;;;21.70;;
18726;SDS011;9492;51.888;5.186;2023-04-29T01:31:14;39.47;;;21.90;;
18726;SDS011;9492;51.888;5.186;2023-04-29T01:39:06;38.03;;;21.57;;
18726;SDS011;9492;51.888;5.186;2023-04-29T01:41:34;35.80;;;21.07;;
18726;SDS011;9492;51.888;5.186;2023-04-29T01:44:03;33.20;;;20.27;;
18726;SDS011;9492;51.888;5.186;2023-04-29T01:46:32;32.47;;;19.13;;
18726;SDS011;9492;51.888;5.186;2023-04-29T01:48:58;33.63;;;20.53;;
18726;SDS011;9492;51.888;5.186;2023-04-29T01:51:24;35.73;;;19.87;;
18726;SDS011;9492;51.888;5.186;2023-04-29T01:53:52;30.43;;;19.47;;
18726;SDS011;9492;51.888;5.186;2023-04-29T01:56:18;30.73;;;19.03;;
18726;SDS011;9492;51.888;5.186;2023-04-29T01:58:44;28.67;;;18.77;;
18726;SDS011;9492;51.888;5.186;2023-04-29T02:01:10;34.67;;;18.07;;
18726;SDS011;9492;51.888;5.186;2023-04-29T02:03:36;29.30;;;18.60;;
18726;SDS011;9492;51.888;5.186;2023-04-29T02:06:03;29.80;;;18.33;;
18726;SDS011;9492;51.888;5.186;2023-04-29T02:08:30;30.97;;;17.23;;
18726;SDS011;9492;51.888;5.186;2023-04-29T02:10:57;25.07;;;17.03;;
18726;SDS011;9492;51.888;5.186;2023-04-29T02:13:24;26.40;;;16.57;;
18726;SDS011;9492;51.888;5.186;2023-04-29T02:15:50;24.33;;;16.30;;
18726;SDS011;9492;51.888;5.186;2023-04-29T02:18:16;24.10;;;15.87;;
18726;SDS011;9492;51.888;5.186;2023-04-29T02:20:42;27.90;;;17.10;;
18726;SDS011;9492;51.888;5.186;2023-04-29T02:23:08;27.17;;;16.80;;
18726;SDS011;9492;51.888;5.186;2023-04-29T02:25:34;29.77;;;16.30;;
18726;SDS011;9492;51.888;5.186;2023-04-29T02:28:00;25.97;;;15.83;;
18726;SDS011;9492;51.888;5.186;2023-04-29T02:30:26;22.33;;;15.13;;
18726;SDS011;9492;51.888;5.186;2023-04-29T02:32:52;28.03;;;17.13;;
18726;SDS011;9492;51.888;5.186;2023-04-29T02:35:18;24.63;;;15.03;;
18726;SDS011;9492;51.888;5.186;2023-04-29T02:37:44;21.63;;;14.57;;
18726;SDS011;9492;51.888;5.186;2023-04-29T02:40:10;23.37;;;14.20;;
18726;SDS011;9492;51.888;5.186;2023-04-29T02:42:36;21.20;;;13.80;;
18726;SDS011;9492;51.888;5.186;2023-04-29T02:45:03;19.67;;;14.30;;
18726;SDS011;9492;51.888;5.186;2023-04-29T02:47:29;23.57;;;14.60;;
18726;SDS011;9492;51.888;5.186;2023-04-29T02:49:55;23.30;;;13.80;;
18726;SDS011;9492;51.888;5.186;2023-04-29T02:52:21;22.00;;;14.30;;
18726;SDS011;9492;51.888;5.186;2023-04-29T02:54:47;21.43;;;13.40;;
18726;SDS011;9492;51.888;5.186;2023-04-29T02:57:13;22.17;;;14.33;;
18726;SDS011;9492;51.888;5.186;2023-04-29T02:59:39;18.93;;;11.93;;
18726;SDS011;9492;51.888;5.186;2023-04-29T03:02:05;17.97;;;12.37;;
18726;SDS011;9492;51.888;5.186;2023-04-29T03:04:31;19.20;;;13.07;;
18726;SDS011;9492;51.888;5.186;2023-04-29T03:06:57;17.10;;;11.83;;
18726;SDS011;9492;51.888;5.186;2023-04-29T03:09:23;21.33;;;12.90;;
18726;SDS011;9492;51.888;5.186;2023-04-29T03:11:49;18.83;;;12.63;;
18726;SDS011;9492;51.888;5.186;2023-04-29T03:14:15;16.80;;;11.57;;
18726;SDS011;9492;51.888;5.186;2023-04-29T03:16:41;16.20;;;11.80;;
18726;SDS011;9492;51.888;5.186;2023-04-29T03:19:08;17.17;;;11.00;;
18726;SDS011;9492;51.888;5.186;2023-04-29T03:21:34;17.53;;;10.90;;
18726;SDS011;9492;51.888;5.186;2023-04-29T03:24:00;14.83;;;10.33;;
18726;SDS011;9492;51.888;5.186;2023-04-29T03:26:26;13.37;;;8.80;;
18726;SDS011;9492;51.888;5.186;2023-04-29T03:28:52;14.47;;;10.27;;
18726;SDS011;9492;51.888;5.186;2023-04-29T03:31:18;15.90;;;11.17;;
18726;SDS011;9492;51.888;5.186;2023-04-29T03:33:46;15.13;;;9.87;;
18726;SDS011;9492;51.888;5.186;2023-04-29T03:36:12;16.03;;;11.70;;
18726;SDS011;9492;51.888;5.186;2023-04-29T03:38:40;19.53;;;11.97;;
18726;SDS011;9492;51.888;5.186;2023-04-29T03:41:06;18.87;;;12.60;;
18726;SDS011;9492;51.888;5.186;2023-04-29T03:43:32;18.23;;;12.53;;
18726;SDS011;9492;51.888;5.186;2023-04-29T03:45:58;17.77;;;12.77;;
18726;SDS011;9492;51.888;5.186;2023-04-29T03:48:24;19.73;;;12.87;;
18726;SDS011;9492;51.888;5.186;2023-04-29T03:50:50;20.83;;;13.77;;
18726;SDS011;9492;51.888;5.186;2023-04-29T03:53:16;18.13;;;12.87;;
18726;SDS011;9492;51.888;5.186;2023-04-29T03:55:42;19.57;;;13.97;;
18726;SDS011;9492;51.888;5.186;2023-04-29T03:58:08;18.50;;;11.80;;
18726;SDS011;9492;51.888;5.186;2023-04-29T04:00:35;18.87;;;12.23;;
18726;SDS011;9492;51.888;5.186;2023-04-29T04:03:01;17.73;;;12.00;;
18726;SDS011;9492;51.888;5.186;2023-04-29T04:05:27;20.53;;;12.80;;
18726;SDS011;9492;51.888;5.186;2023-04-29T04:07:53;21.03;;;13.27;;
18726;SDS011;9492;51.888;5.186;2023-04-29T04:10:19;16.70;;;12.33;;
18726;SDS011;9492;51.888;5.186;2023-04-29T04:12:45;19.70;;;13.13;;
18726;SDS011;9492;51.888;5.186;2023-04-29T04:15:11;18.33;;;12.37;;
18726;SDS011;9492;51.888;5.186;2023-04-29T04:17:37;18.43;;;12.17;;
18726;SDS011;9492;51.888;5.186;2023-04-29T04:20:03;19.87;;;12.90;;
18726;SDS011;9492;51.888;5.186;2023-04-29T04:22:29;18.27;;;10.70;;
18726;SDS011;9492;51.888;5.186;2023-04-29T04:24:55;16.67;;;12.10;;
18726;SDS011;9492;51.888;5.186;2023-04-29T04:27:22;18.53;;;12.03;;
18726;SDS011;9492;51.888;5.186;2023-04-29T04:29:52;19.47;;;13.03;;
18726;SDS011;9492;51.888;5.186;2023-04-29T04:32:18;23.70;;;12.97;;
18726;SDS011;9492;51.888;5.186;2023-04-29T04:34:44;16.87;;;11.80;;
18726;SDS011;9492;51.888;5.186;2023-04-29T04:37:10;16.93;;;10.90;;
18726;SDS011;9492;51.888;5.186;2023-04-29T04:39:37;17.83;;;11.57;;
18726;SDS011;9492;51.888;5.186;2023-04-29T04:42:03;15.67;;;11.20;;
18726;SDS011;9492;51.888;5.186;2023-04-29T04:44:29;19.50;;;12.30;;
18726;SDS011;9492;51.888;5.186;2023-04-29T04:46:55;18.17;;;11.50;;
18726;SDS011;9492;51.888;5.186;2023-04-29T04:49:22;18.67;;;11.57;;
18726;SDS011;9492;51.888;5.186;2023-04-29T04:51:49;19.67;;;12.00;;
18726;SDS011;9492;51.888;5.186;2023-04-29T04:54:15;13.80;;;11.30;;
18726;SDS011;9492;51.888;5.186;2023-04-29T04:56:41;18.03;;;11.77;;
18726;SDS011;9492;51.888;5.186;2023-04-29T04:59:07;14.90;;;11.30;;
18726;SDS011;9492;51.888;5.186;2023-04-29T05:01:33;15.90;;;11.10;;
18726;SDS011;9492;51.888;5.186;2023-04-29T05:04:00;16.33;;;11.73;;
18726;SDS011;9492;51.888;5.186;2023-04-29T05:06:27;15.47;;;11.57;;
18726;SDS011;9492;51.888;5.186;2023-04-29T05:08:54;18.50;;;11.40;;
18726;SDS011;9492;51.888;5.186;2023-04-29T05:11:20;16.97;;;12.03;;
18726;SDS011;9492;51.888;5.186;2023-04-29T05:13:47;18.93;;;12.33;;
18726;SDS011;9492;51.888;5.186;2023-04-29T05:16:13;20.87;;;12.47;;
18726;SDS011;9492;51.888;5.186;2023-04-29T05:18:41;16.30;;;11.30;;
18726;SDS011;9492;51.888;5.186;2023-04-29T05:21:10;16.53;;;11.83;;
18726;SDS011;9492;51.888;5.186;2023-04-29T05:23:36;16.93;;;11.83;;
18726;SDS011;9492;51.888;5.186;2023-04-29T05:26:03;17.37;;;11.40;;
18726;SDS011;9492;51.888;5.186;2023-04-29T05:28:29;18.50;;;11.87;;
18726;SDS011;9492;51.888;5.186;2023-04-29T05:30:55;16.13;;;10.97;;
18726;SDS011;9492;51.888;5.186;2023-04-29T05:33:21;15.07;;;11.27;;
18726;SDS011;9492;51.888;5.186;2023-04-29T05:35:47;18.77;;;10.90;;
18726;SDS011;9492;51.888;5.186;2023-04-29T05:38:13;17.07;;;12.73;;
18726;SDS011;9492;51.888;5.186;2023-04-29T05:40:39;14.57;;;10.80;;
18726;SDS011;9492;51.888;5.186;2023-04-29T05:43:05;16.57;;;11.33;;
18726;SDS011;9492;51.888;5.186;2023-04-29T05:45:31;20.03;;;11.53;;
18726;SDS011;9492;51.888;5.186;2023-04-29T05:47:57;17.73;;;11.33;;
18726;SDS011;9492;51.888;5.186;2023-04-29T05:50:23;14.10;;;10.77;;
18726;SDS011;9492;51.888;5.186;2023-04-29T05:52:49;15.27;;;10.40;;
18726;SDS011;9492;51.888;5.186;2023-04-29T05:55:15;15.37;;;10.90;;
18726;SDS011;9492;51.888;5.186;2023-04-29T05:57:41;16.73;;;11.50;;
18726;SDS011;9492;51.888;5.186;2023-04-29T06:00:08;14.47;;;9.93;;
18726;SDS011;9492;51.888;5.186;2023-04-29T06:02:34;16.60;;;10.57;;
18726;SDS011;9492;51.888;5.186;2023-04-29T06:05:03;14.30;;;10.83;;
18726;SDS011;9492;51.888;5.186;2023-04-29T06:07:29;14.77;;;10.77;;
18726;SDS011;9492;51.888;5.186;2023-04-29T06:09:55;17.53;;;12.03;;
18726;SDS011;9492;51.888;5.186;2023-04-29T06:12:21;16.53;;;11.50;;
18726;SDS011;9492;51.888;5.186;2023-04-29T06:14:47;18.60;;;10.23;;
18726;SDS011;9492;51.888;5.186;2023-04-29T06:17:13;14.23;;;10.30;;
18726;SDS011;9492;51.888;5.186;2023-04-29T06:19:39;18.17;;;10.83;;
18726;SDS011;9492;51.888;5.186;2023-04-29T06:22:05;13.20;;;10.80;;
18726;SDS011;9492;51.888;5.186;2023-04-29T06:24:31;15.57;;;11.40;;
18726;SDS011;9492;51.888;5.186;2023-04-29T06:26:57;12.43;;;9.57;;
18726;SDS011;9492;51.888;5.186;2023-04-29T06:29:23;16.23;;;10.57;;
18726;SDS011;9492;51.888;5.186;2023-04-29T06:31:49;16.23;;;10.50;;
18726;SDS011;9492;51.888;5.186;2023-04-29T06:34:15;13.37;;;9.63;;
18726;SDS011;9492;51.888;5.186;2023-04-29T06:36:41;17.03;;;11.20;;
18726;SDS011;9492;51.888;5.186;2023-04-29T06:39:07;16.87;;;11.13;;
18726;SDS011;9492;51.888;5.186;2023-04-29T06:41:33;14.23;;;10.67;;
18726;SDS011;9492;51.888;5.186;2023-04-29T06:44:00;17.43;;;11.50;;
18726;SDS011;9492;51.888;5.186;2023-04-29T06:46:26;15.23;;;11.07;;
18726;SDS011;9492;51.888;5.186;2023-04-29T06:48:53;18.07;;;12.10;;
18726;SDS011;9492;51.888;5.186;2023-04-29T06:51:19;17.27;;;11.10;;
18726;SDS011;9492;51.888;5.186;2023-04-29T06:53:45;14.03;;;10.60;;
18726;SDS011;9492;51.888;5.186;2023-04-29T06:56:12;14.73;;;11.97;;
18726;SDS011;9492;51.888;5.186;2023-04-29T06:58:38;21.27;;;11.90;;
18726;SDS011;9492;51.888;5.186;2023-04-29T07:01:04;14.30;;;10.60;;
18726;SDS011;9492;51.888;5.186;2023-04-29T07:03:31;18.87;;;11.87;;
18726;SDS011;9492;51.888;5.186;2023-04-29T07:05:57;19.73;;;11.37;;
18726;SDS011;9492;51.888;5.186;2023-04-29T07:08:23;16.53;;;11.53;;
18726;SDS011;9492;51.888;5.186;2023-04-29T07:10:53;13.90;;;11.10;;
18726;SDS011;9492;51.888;5.186;2023-04-29T07:13:19;18.87;;;10.50;;
18726;SDS011;9492;51.888;5.186;2023-04-29T07:15:45;13.57;;;9.80;;
18726;SDS011;9492;51.888;5.186;2023-04-29T07:18:11;15.17;;;10.57;;
18726;SDS011;9492;51.888;5.186;2023-04-29T07:20:37;16.17;;;10.13;;
18726;SDS011;9492;51.888;5.186;2023-04-29T07:23:03;16.77;;;10.00;;
18726;SDS011;9492;51.888;5.186;2023-04-29T07:25:29;12.80;;;9.30;;
18726;SDS011;9492;51.888;5.186;2023-04-29T07:27:56;17.57;;;10.97;;
18726;SDS011;9492;51.888;5.186;2023-04-29T07:30:22;12.83;;;9.73;;
18726;SDS011;9492;51.888;5.186;2023-04-29T07:32:48;18.37;;;9.87;;
18726;SDS011;9492;51.888;5.186;2023-04-29T07:35:14;11.87;;;9.53;;
18726;SDS011;9492;51.888;5.186;2023-04-29T07:37:41;15.70;;;10.03;;
18726;SDS011;9492;51.888;5.186;2023-04-29T07:40:07;14.60;;;9.57;;
18726;SDS011;9492;51.888;5.186;2023-04-29T07:42:34;13.87;;;9.67;;
18726;SDS011;9492;51.888;5.186;2023-04-29T07:45:00;14.33;;;9.87;;
18726;SDS011;9492;51.888;5.186;2023-04-29T07:47:26;16.27;;;9.53;;
18726;SDS011;9492;51.888;5.186;2023-04-29T07:49:52;19.60;;;11.23;;
18726;SDS011;9492;51.888;5.186;2023-04-29T07:52:18;16.00;;;10.60;;
18726;SDS011;9492;51.888;5.186;2023-04-29T07:54:44;16.53;;;10.37;;
18726;SDS011;9492;51.888;5.186;2023-04-29T07:57:10;18.67;;;10.00;;
18726;SDS011;9492;51.888;5.186;2023-04-29T07:59:36;14.60;;;10.10;;
18726;SDS011;9492;51.888;5.186;2023-04-29T08:02:02;16.37;;;9.90;;
18726;SDS011;9492;51.888;5.186;2023-04-29T08:04:28;14.37;;;10.73;;
18726;SDS011;9492;51.888;5.186;2023-04-29T08:06:54;14.70;;;10.27;;
18726;SDS011;9492;51.888;5.186;2023-04-29T08:09:20;14.80;;;10.33;;
18726;SDS011;9492;51.888;5.186;2023-04-29T08:11:46;13.70;;;9.93;;
18726;SDS011;9492;51.888;5.186;2023-04-29T08:14:12;15.37;;;9.83;;
18726;SDS011;9492;51.888;5.186;2023-04-29T08:16:38;12.50;;;9.07;;
18726;SDS011;9492;51.888;5.186;2023-04-29T08:19:04;14.20;;;8.80;;
18726;SDS011;9492;51.888;5.186;2023-04-29T08:21:30;14.80;;;9.57;;
18726;SDS011;9492;51.888;5.186;2023-04-29T08:23:57;16.33;;;8.87;;
18726;SDS011;9492;51.888;5.186;2023-04-29T08:26:23;13.43;;;9.20;;
18726;SDS011;9492;51.888;5.186;2023-04-29T08:28:49;11.80;;;8.17;;
18726;SDS011;9492;51.888;5.186;2023-04-29T08:31:15;12.80;;;8.80;;
18726;SDS011;9492;51.888;5.186;2023-04-29T08:33:42;12.17;;;9.07;;
18726;SDS011;9492;51.888;5.186;2023-04-29T08:36:08;12.23;;;8.97;;
18726;SDS011;9492;51.888;5.186;2023-04-29T08:38:34;11.47;;;8.70;;
18726;SDS011;9492;51.888;5.186;2023-04-29T08:41:00;13.70;;;9.80;;
18726;SDS011;9492;51.888;5.186;2023-04-29T08:43:26;12.70;;;8.33;;
18726;SDS011;9492;51.888;5.186;2023-04-29T08:45:52;12.73;;;8.77;;
18726;SDS011;9492;51.888;5.186;2023-04-29T08:48:18;11.33;;;8.47;;
18726;SDS011;9492;51.888;5.186;2023-04-29T08:50:44;17.57;;;11.93;;
18726;SDS011;9492;51.888;5.186;2023-04-29T08:53:12;15.53;;;10.20;;
18726;SDS011;9492;51.888;5.186;2023-04-29T08:58:07;14.63;;;8.90;;
18726;SDS011;9492;51.888;5.186;2023-04-29T09:00:34;11.00;;;7.37;;
18726;SDS011;9492;51.888;5.186;2023-04-29T09:03:03;9.97;;;7.30;;
18726;SDS011;9492;51.888;5.186;2023-04-29T09:05:35;9.83;;;7.33;;
18726;SDS011;9492;51.888;5.186;2023-04-29T09:08:03;11.40;;;7.70;;
18726;SDS011;9492;51.888;5.186;2023-04-29T09:10:29;10.20;;;7.07;;
18726;SDS011;9492;51.888;5.186;2023-04-29T09:12:56;12.23;;;8.10;;
18726;SDS011;9492;51.888;5.186;2023-04-29T09:15:25;13.63;;;7.67;;
18726;SDS011;9492;51.888;5.186;2023-04-29T09:17:51;11.90;;;7.03;;
18726;SDS011;9492;51.888;5.186;2023-04-29T09:22:47;10.33;;;7.33;;
18726;SDS011;9492;51.888;5.186;2023-04-29T09:25:13;13.40;;;7.03;;
18726;SDS011;9492;51.888;5.186;2023-04-29T09:27:39;8.90;;;6.50;;
18726;SDS011;9492;51.888;5.186;2023-04-29T09:30:06;12.17;;;7.40;;
18726;SDS011;9492;51.888;5.186;2023-04-29T09:32:33;9.77;;;6.87;;
18726;SDS011;9492;51.888;5.186;2023-04-29T09:37:44;9.40;;;6.60;;
18726;SDS011;9492;51.888;5.186;2023-04-29T09:40:26;10.17;;;6.23;;
18726;SDS011;9492;51.888;5.186;2023-04-29T09:42:54;11.73;;;7.40;;
18726;SDS011;9492;51.888;5.186;2023-04-29T09:48:02;7.70;;;6.00;;
18726;SDS011;9492;51.888;5.186;2023-04-29T09:50:29;9.00;;;6.80;;
18726;SDS011;9492;51.888;5.186;2023-04-29T09:52:55;9.30;;;5.77;;
18726;SDS011;9492;51.888;5.186;2023-04-29T09:55:21;8.80;;;6.03;;
18726;SDS011;9492;51.888;5.186;2023-04-29T09:57:47;9.20;;;5.57;;
18726;SDS011;9492;51.888;5.186;2023-04-29T10:00:13;8.67;;;6.87;;
18726;SDS011;9492;51.888;5.186;2023-04-29T10:02:44;9.63;;;5.53;;
18726;SDS011;9492;51.888;5.186;2023-04-29T10:05:11;5.97;;;4.80;;
18726;SDS011;9492;51.888;5.186;2023-04-29T10:07:38;6.13;;;5.13;;
18726;SDS011;9492;51.888;5.186;2023-04-29T10:10:04;7.77;;;6.30;;
18726;SDS011;9492;51.888;5.186;2023-04-29T10:12:32;7.50;;;5.50;;
18726;SDS011;9492;51.888;5.186;2023-04-29T10:17:39;7.57;;;5.10;;
18726;SDS011;9492;51.888;5.186;2023-04-29T10:20:08;6.17;;;4.50;;
18726;SDS011;9492;51.888;5.186;2023-04-29T10:22:39;5.43;;;4.20;;
18726;SDS011;9492;51.888;5.186;2023-04-29T10:25:09;5.67;;;4.37;;
18726;SDS011;9492;51.888;5.186;2023-04-29T10:27:36;7.67;;;5.03;;
18726;SDS011;9492;51.888;5.186;2023-04-29T10:30:02;9.47;;;5.83;;
18726;SDS011;9492;51.888;5.186;2023-04-29T10:32:29;7.43;;;5.80;;
18726;SDS011;9492;51.888;5.186;2023-04-29T10:34:55;8.03;;;5.93;;
18726;SDS011;9492;51.888;5.186;2023-04-29T10:37:22;8.17;;;5.17;;
18726;SDS011;9492;51.888;5.186;2023-04-29T10:40:09;7.03;;;4.80;;
18726;SDS011;9492;51.888;5.186;2023-04-29T10:42:42;6.00;;;4.40;;
18726;SDS011;9492;51.888;5.186;2023-04-29T10:48:07;8.17;;;4.63;;
18726;SDS011;9492;51.888;5.186;2023-04-29T10:53:02;5.13;;;4.00;;
18726;SDS011;9492;51.888;5.186;2023-04-29T10:55:28;5.50;;;4.50;;
18726;SDS011;9492;51.888;5.186;2023-04-29T10:57:55;7.07;;;4.50;;
18726;SDS011;9492;51.888;5.186;2023-04-29T11:00:21;5.10;;;4.40;;
18726;SDS011;9492;51.888;5.186;2023-04-29T11:02:52;6.83;;;4.63;;
18726;SDS011;9492;51.888;5.186;2023-04-29T11:05:28;7.40;;;5.20;;
18726;SDS011;9492;51.888;5.186;2023-04-29T11:08:10;9.47;;;5.77;;
18726;SDS011;9492;51.888;5.186;2023-04-29T11:10:38;7.67;;;5.00;;
18726;SDS011;9492;51.888;5.186;2023-04-29T11:13:22;6.97;;;4.90;;
18726;SDS011;9492;51.888;5.186;2023-04-29T11:15:49;5.83;;;4.73;;
18726;SDS011;9492;51.888;5.186;2023-04-29T11:18:16;6.00;;;4.17;;
18726;SDS011;9492;51.888;5.186;2023-04-29T11:23:26;5.17;;;3.80;;
18726;SDS011;9492;51.888;5.186;2023-04-29T11:25:53;5.00;;;4.13;;
18726;SDS011;9492;51.888;5.186;2023-04-29T11:28:19;6.17;;;4.33;;
18726;SDS011;9492;51.888;5.186;2023-04-29T11:30:45;4.97;;;4.30;;
18726;SDS011;9492;51.888;5.186;2023-04-29T11:33:12;5.83;;;4.30;;
18726;SDS011;9492;51.888;5.186;2023-04-29T11:35:38;3.83;;;3.23;;
18726;SDS011;9492;51.888;5.186;2023-04-29T11:38:04;7.47;;;4.53;;
18726;SDS011;9492;51.888;5.186;2023-04-29T11:40:31;8.07;;;4.00;;
18726;SDS011;9492;51.888;5.186;2023-04-29T11:42:58;4.73;;;3.87;;
18726;SDS011;9492;51.888;5.186;2023-04-29T11:45:24;4.07;;;3.67;;
18726;SDS011;9492;51.888;5.186;2023-04-29T11:47:50;5.93;;;4.13;;
18726;SDS011;9492;51.888;5.186;2023-04-29T11:50:16;5.00;;;4.10;;
18726;SDS011;9492;51.888;5.186;2023-04-29T11:52:45;5.90;;;3.67;;
18726;SDS011;9492;51.888;5.186;2023-04-29T11:55:11;6.63;;;3.63;;
18726;SDS011;9492;51.888;5.186;2023-04-29T11:57:38;6.00;;;3.77;;
18726;SDS011;9492;51.888;5.186;2023-04-29T12:00:04;3.87;;;3.47;;
18726;SDS011;9492;51.888;5.186;2023-04-29T12:02:34;4.60;;;3.33;;
18726;SDS011;9492;51.888;5.186;2023-04-29T12:05:04;4.53;;;3.50;;
18726;SDS011;9492;51.888;5.186;2023-04-29T12:07:31;6.87;;;3.77;;
18726;SDS011;9492;51.888;5.186;2023-04-29T12:09:57;4.00;;;3.70;;
18726;SDS011;9492;51.888;5.186;2023-04-29T12:12:24;4.70;;;3.90;;
18726;SDS011;9492;51.888;5.186;2023-04-29T12:14:52;5.20;;;3.53;;
18726;SDS011;9492;51.888;5.186;2023-04-29T12:17:18;5.90;;;3.53;;
18726;SDS011;9492;51.888;5.186;2023-04-29T12:19:45;3.73;;;3.00;;
18726;SDS011;9492;51.888;5.186;2023-04-29T12:22:12;4.20;;;2.97;;
18726;SDS011;9492;51.888;5.186;2023-04-29T12:24:38;4.93;;;3.67;;
18726;SDS011;9492;51.888;5.186;2023-04-29T12:27:08;3.93;;;3.23;;
18726;SDS011;9492;51.888;5.186;2023-04-29T12:29:35;4.53;;;3.57;;
18726;SDS011;9492;51.888;5.186;2023-04-29T12:32:01;4.60;;;3.27;;
18726;SDS011;9492;51.888;5.186;2023-04-29T12:34:28;5.03;;;3.00;;
18726;SDS011;9492;51.888;5.186;2023-04-29T12:36:55;3.60;;;3.10;;
18726;SDS011;9492;51.888;5.186;2023-04-29T12:39:22;4.23;;;3.40;;
18726;SDS011;9492;51.888;5.186;2023-04-29T12:41:48;3.20;;;2.90;;
18726;SDS011;9492;51.888;5.186;2023-04-29T12:44:14;3.37;;;2.80;;
18726;SDS011;9492;51.888;5.186;2023-04-29T12:46:40;5.33;;;2.80;;
18726;SDS011;9492;51.888;5.186;2023-04-29T12:49:06;4.43;;;2.90;;
18726;SDS011;9492;51.888;5.186;2023-04-29T12:51:33;2.60;;;2.40;;
18726;SDS011;9492;51.888;5.186;2023-04-29T12:54:03;3.67;;;2.97;;
18726;SDS011;9492;51.888;5.186;2023-04-29T12:56:31;3.03;;;2.60;;
18726;SDS011;9492;51.888;5.186;2023-04-29T12:59:06;3.83;;;2.70;;
18726;SDS011;9492;51.888;5.186;2023-04-29T13:01:33;3.47;;;2.60;;
18726;SDS011;9492;51.888;5.186;2023-04-29T13:03:59;3.53;;;2.60;;
18726;SDS011;9492;51.888;5.186;2023-04-29T13:06:25;3.30;;;2.47;;
18726;SDS011;9492;51.888;5.186;2023-04-29T13:08:51;2.90;;;2.10;;
18726;SDS011;9492;51.888;5.186;2023-04-29T13:11:17;3.83;;;2.13;;
18726;SDS011;9492;51.888;5.186;2023-04-29T13:13:43;2.70;;;1.73;;
18726;SDS011;9492;51.888;5.186;2023-04-29T13:16:09;2.60;;;2.07;;
18726;SDS011;9492;51.888;5.186;2023-04-29T13:18:35;2.40;;;2.20;;
18726;SDS011;9492;51.888;5.186;2023-04-29T13:21:01;2.87;;;1.77;;
18726;SDS011;9492;51.888;5.186;2023-04-29T13:23:27;2.07;;;1.93;;
18726;SDS011;9492;51.888;5.186;2023-04-29T13:25:53;2.27;;;1.67;;
18726;SDS011;9492;51.888;5.186;2023-04-29T13:28:19;2.33;;;2.13;;
18726;SDS011;9492;51.888;5.186;2023-04-29T13:30:46;2.73;;;1.60;;
18726;SDS011;9492;51.888;5.186;2023-04-29T13:33:12;2.07;;;1.70;;
18726;SDS011;9492;51.888;5.186;2023-04-29T13:35:38;1.80;;;1.70;;
18726;SDS011;9492;51.888;5.186;2023-04-29T13:38:05;1.90;;;1.80;;
18726;SDS011;9492;51.888;5.186;2023-04-29T13:40:31;2.50;;;1.90;;
18726;SDS011;9492;51.888;5.186;2023-04-29T13:42:57;2.53;;;1.93;;
18726;SDS011;9492;51.888;5.186;2023-04-29T13:45:23;2.00;;;1.90;;
18726;SDS011;9492;51.888;5.186;2023-04-29T13:47:49;2.17;;;1.97;;
18726;SDS011;9492;51.888;5.186;2023-04-29T13:50:15;2.23;;;1.70;;
18726;SDS011;9492;51.888;5.186;2023-04-29T13:52:41;2.47;;;1.77;;
18726;SDS011;9492;51.888;5.186;2023-04-29T13:55:07;2.10;;;2.00;;
18726;SDS011;9492;51.888;5.186;2023-04-29T13:57:33;2.73;;;2.10;;
18726;SDS011;9492;51.888;5.186;2023-04-29T13:59:59;2.87;;;2.60;;
18726;SDS011;9492;51.888;5.186;2023-04-29T14:02:25;2.40;;;1.83;;
18726;SDS011;9492;51.888;5.186;2023-04-29T14:04:52;3.27;;;2.30;;
18726;SDS011;9492;51.888;5.186;2023-04-29T14:07:18;4.03;;;2.50;;
18726;SDS011;9492;51.888;5.186;2023-04-29T14:09:44;2.97;;;2.73;;
18726;SDS011;9492;51.888;5.186;2023-04-29T14:12:10;5.00;;;4.00;;
18726;SDS011;9492;51.888;5.186;2023-04-29T14:14:36;5.07;;;3.80;;
18726;SDS011;9492;51.888;5.186;2023-04-29T14:17:02;4.83;;;4.07;;
18726;SDS011;9492;51.888;5.186;2023-04-29T14:19:28;5.77;;;3.73;;
18726;SDS011;9492;51.888;5.186;2023-04-29T14:21:54;5.60;;;4.30;;
18726;SDS011;9492;51.888;5.186;2023-04-29T14:24:20;4.43;;;3.27;;
18726;SDS011;9492;51.888;5.186;2023-04-29T14:26:46;3.63;;;3.33;;
18726;SDS011;9492;51.888;5.186;2023-04-29T14:29:12;5.83;;;3.80;;
18726;SDS011;9492;51.888;5.186;2023-04-29T14:31:38;5.00;;;4.03;;
18726;SDS011;9492;51.888;5.186;2023-04-29T14:34:04;3.63;;;3.30;;
18726;SDS011;9492;51.888;5.186;2023-04-29T14:36:30;5.43;;;3.60;;
18726;SDS011;9492;51.888;5.186;2023-04-29T14:38:57;3.67;;;3.30;;
18726;SDS011;9492;51.888;5.186;2023-04-29T14:41:24;4.23;;;3.33;;
18726;SDS011;9492;51.888;5.186;2023-04-29T14:43:50;6.43;;;3.77;;
18726;SDS011;9492;51.888;5.186;2023-04-29T14:46:16;3.40;;;3.10;;
18726;SDS011;9492;51.888;5.186;2023-04-29T14:48:42;6.00;;;3.70;;
18726;SDS011;9492;51.888;5.186;2023-04-29T14:51:08;5.30;;;3.40;;
18726;SDS011;9492;51.888;5.186;2023-04-29T14:53:34;5.13;;;3.60;;
18726;SDS011;9492;51.888;5.186;2023-04-29T14:56:00;4.43;;;4.00;;
18726;SDS011;9492;51.888;5.186;2023-04-29T14:58:27;3.83;;;3.10;;
18726;SDS011;9492;51.888;5.186;2023-04-29T15:00:53;4.47;;;3.40;;
18726;SDS011;9492;51.888;5.186;2023-04-29T15:03:20;3.57;;;3.27;;
18726;SDS011;9492;51.888;5.186;2023-04-29T15:05:46;4.53;;;2.87;;
18726;SDS011;9492;51.888;5.186;2023-04-29T15:08:14;5.77;;;3.17;;
18726;SDS011;9492;51.888;5.186;2023-04-29T15:10:41;3.30;;;2.83;;
18726;SDS011;9492;51.888;5.186;2023-04-29T15:13:09;5.13;;;2.70;;
18726;SDS011;9492;51.888;5.186;2023-04-29T15:15:35;2.60;;;2.40;;
18726;SDS011;9492;51.888;5.186;2023-04-29T15:18:01;4.23;;;2.37;;